sensor_id;sensor_type;location;lat;lon;timestamp;P1;durP1;ratioP1;P2;durP2;ratioP2
78877;SDS011;68257;43.514;1.498;2023-03-25T00:00:58;6.20;;;1.70;;
78877;SDS011;68257;43.514;1.498;2023-03-25T00:03:28;6.63;;;1.75;;
78877;SDS011;68257;43.514;1.498;2023-03-25T00:05:55;5.18;;;1.70;;
78877;SDS011;68257;43.514;1.498;2023-03-25T00:08:21;7.18;;;2.05;;
78877;SDS011;68257;43.514;1.498;2023-03-25T00:10:57;4.22;;;1.40;;
78877;SDS011;68257;43.514;1.498;2023-03-25T00:13:24;8.18;;;1.60;;
78877;SDS011;68257;43.514;1.498;2023-03-25T00:15:50;5.03;;;1.83;;
78877;SDS011;68257;43.514;1.498;2023-03-25T00:18:17;8.32;;;1.98;;
78877;SDS011;68257;43.514;1.498;2023-03-25T00:20:44;7.80;;;1.42;;
78877;SDS011;68257;43.514;1.498;2023-03-25T00:23:13;8.73;;;1.80;;
78877;SDS011;68257;43.514;1.498;2023-03-25T00:25:39;5.93;;;1.48;;
78877;SDS011;68257;43.514;1.498;2023-03-25T00:28:06;8.35;;;1.45;;
78877;SDS011;68257;43.514;1.498;2023-03-25T00:30:32;6.75;;;1.75;;
78877;SDS011;68257;43.514;1.498;2023-03-25T00:32:57;8.40;;;1.70;;
78877;SDS011;68257;43.514;1.498;2023-03-25T00:35:25;8.45;;;1.80;;
78877;SDS011;68257;43.514;1.498;2023-03-25T00:37:51;5.37;;;1.63;;
78877;SDS011;68257;43.514;1.498;2023-03-25T00:40:21;6.18;;;1.58;;
78877;SDS011;68257;43.514;1.498;2023-03-25T00:42:47;6.47;;;1.80;;
78877;SDS011;68257;43.514;1.498;2023-03-25T00:45:14;5.55;;;1.38;;
78877;SDS011;68257;43.514;1.498;2023-03-25T00:47:40;6.18;;;1.70;;
78877;SDS011;68257;43.514;1.498;2023-03-25T00:50:06;6.90;;;1.70;;
78877;SDS011;68257;43.514;1.498;2023-03-25T00:52:31;7.20;;;1.60;;
78877;SDS011;68257;43.514;1.498;2023-03-25T00:54:57;5.70;;;1.48;;
78877;SDS011;68257;43.514;1.498;2023-03-25T00:57:22;7.77;;;1.47;;
78877;SDS011;68257;43.514;1.498;2023-03-25T00:59:47;8.67;;;1.87;;
78877;SDS011;68257;43.514;1.498;2023-03-25T01:02:13;6.93;;;1.50;;
78877;SDS011;68257;43.514;1.498;2023-03-25T01:04:40;6.28;;;1.60;;
78877;SDS011;68257;43.514;1.498;2023-03-25T01:07:05;6.80;;;1.43;;
78877;SDS011;68257;43.514;1.498;2023-03-25T01:09:31;5.68;;;1.30;;
78877;SDS011;68257;43.514;1.498;2023-03-25T01:11:57;5.00;;;1.13;;
78877;SDS011;68257;43.514;1.498;2023-03-25T01:14:22;5.97;;;1.20;;
78877;SDS011;68257;43.514;1.498;2023-03-25T01:16:54;5.63;;;1.10;;
78877;SDS011;68257;43.514;1.498;2023-03-25T01:19:20;6.78;;;1.30;;
78877;SDS011;68257;43.514;1.498;2023-03-25T01:21:45;5.57;;;1.00;;
78877;SDS011;68257;43.514;1.498;2023-03-25T01:24:12;5.93;;;1.30;;
78877;SDS011;68257;43.514;1.498;2023-03-25T01:26:38;6.63;;;1.48;;
78877;SDS011;68257;43.514;1.498;2023-03-25T01:29:05;7.00;;;1.55;;
78877;SDS011;68257;43.514;1.498;2023-03-25T01:31:31;4.18;;;1.20;;
78877;SDS011;68257;43.514;1.498;2023-03-25T01:33:56;8.27;;;1.23;;
78877;SDS011;68257;43.514;1.498;2023-03-25T01:36:23;5.40;;;1.40;;
78877;SDS011;68257;43.514;1.498;2023-03-25T01:38:53;5.53;;;1.13;;
78877;SDS011;68257;43.514;1.498;2023-03-25T01:41:19;7.85;;;1.50;;
78877;SDS011;68257;43.514;1.498;2023-03-25T01:46:29;5.82;;;1.27;;
78877;SDS011;68257;43.514;1.498;2023-03-25T01:48:54;5.87;;;1.10;;
78877;SDS011;68257;43.514;1.498;2023-03-25T01:51:21;7.75;;;1.40;;
78877;SDS011;68257;43.514;1.498;2023-03-25T01:53:49;6.40;;;1.40;;
78877;SDS011;68257;43.514;1.498;2023-03-25T01:56:17;4.30;;;1.15;;
78877;SDS011;68257;43.514;1.498;2023-03-25T01:58:44;4.15;;;1.10;;
78877;SDS011;68257;43.514;1.498;2023-03-25T02:01:11;5.00;;;1.20;;
78877;SDS011;68257;43.514;1.498;2023-03-25T02:03:38;5.40;;;1.30;;
78877;SDS011;68257;43.514;1.498;2023-03-25T02:06:21;5.53;;;1.15;;
78877;SDS011;68257;43.514;1.498;2023-03-25T02:08:56;3.97;;;1.00;;
78877;SDS011;68257;43.514;1.498;2023-03-25T02:11:22;6.15;;;1.23;;
78877;SDS011;68257;43.514;1.498;2023-03-25T02:13:52;5.87;;;1.10;;
78877;SDS011;68257;43.514;1.498;2023-03-25T02:27:36;6.00;;;1.05;;
78877;SDS011;68257;43.514;1.498;2023-03-25T02:35:35;5.03;;;0.95;;
78877;SDS011;68257;43.514;1.498;2023-03-25T02:44:10;6.43;;;0.95;;
78877;SDS011;68257;43.514;1.498;2023-03-25T02:46:42;4.60;;;1.00;;
78877;SDS011;68257;43.514;1.498;2023-03-25T02:49:14;6.53;;;1.20;;
78877;SDS011;68257;43.514;1.498;2023-03-25T02:51:45;6.50;;;1.27;;
78877;SDS011;68257;43.514;1.498;2023-03-25T02:54:13;4.10;;;1.20;;
78877;SDS011;68257;43.514;1.498;2023-03-25T02:56:40;7.10;;;0.77;;
78877;SDS011;68257;43.514;1.498;2023-03-25T02:59:08;4.55;;;0.90;;
78877;SDS011;68257;43.514;1.498;2023-03-25T03:01:38;5.15;;;1.20;;
78877;SDS011;68257;43.514;1.498;2023-03-25T03:04:04;6.75;;;1.00;;
78877;SDS011;68257;43.514;1.498;2023-03-25T03:06:29;5.73;;;1.10;;
78877;SDS011;68257;43.514;1.498;2023-03-25T03:09:41;5.47;;;0.98;;
78877;SDS011;68257;43.514;1.498;2023-03-25T03:35:59;6.25;;;1.40;;
78877;SDS011;68257;43.514;1.498;2023-03-25T03:38:29;7.70;;;1.50;;
78877;SDS011;68257;43.514;1.498;2023-03-25T03:41:02;6.90;;;1.50;;
78877;SDS011;68257;43.514;1.498;2023-03-25T03:43:32;5.57;;;1.60;;
78877;SDS011;68257;43.514;1.498;2023-03-25T03:46:00;8.63;;;1.87;;
78877;SDS011;68257;43.514;1.498;2023-03-25T03:48:30;7.35;;;1.58;;
78877;SDS011;68257;43.514;1.498;2023-03-25T03:51:00;7.18;;;1.80;;
78877;SDS011;68257;43.514;1.498;2023-03-25T03:53:41;9.55;;;2.05;;
78877;SDS011;68257;43.514;1.498;2023-03-25T03:56:17;6.40;;;1.40;;
78877;SDS011;68257;43.514;1.498;2023-03-25T03:58:46;5.47;;;1.10;;
78877;SDS011;68257;43.514;1.498;2023-03-25T04:01:16;5.05;;;1.00;;
78877;SDS011;68257;43.514;1.498;2023-03-25T04:03:52;6.45;;;1.20;;
78877;SDS011;68257;43.514;1.498;2023-03-25T04:06:21;5.50;;;1.00;;
78877;SDS011;68257;43.514;1.498;2023-03-25T04:09:02;6.40;;;1.10;;
78877;SDS011;68257;43.514;1.498;2023-03-25T04:11:55;7.20;;;1.00;;
78877;SDS011;68257;43.514;1.498;2023-03-25T04:14:24;5.95;;;0.93;;
78877;SDS011;68257;43.514;1.498;2023-03-25T04:16:50;6.60;;;1.15;;
78877;SDS011;68257;43.514;1.498;2023-03-25T04:19:17;5.05;;;0.80;;
78877;SDS011;68257;43.514;1.498;2023-03-25T04:21:43;4.57;;;0.87;;
78877;SDS011;68257;43.514;1.498;2023-03-25T04:24:09;5.28;;;0.98;;
78877;SDS011;68257;43.514;1.498;2023-03-25T04:26:35;6.53;;;1.08;;
78877;SDS011;68257;43.514;1.498;2023-03-25T04:29:02;7.70;;;0.80;;
78877;SDS011;68257;43.514;1.498;2023-03-25T04:31:29;6.37;;;1.13;;
78877;SDS011;68257;43.514;1.498;2023-03-25T04:33:58;6.50;;;1.10;;
78877;SDS011;68257;43.514;1.498;2023-03-25T04:36:24;6.15;;;1.10;;
78877;SDS011;68257;43.514;1.498;2023-03-25T04:38:53;5.65;;;1.30;;
78877;SDS011;68257;43.514;1.498;2023-03-25T04:41:20;4.65;;;1.08;;
78877;SDS011;68257;43.514;1.498;2023-03-25T04:43:46;7.10;;;1.10;;
78877;SDS011;68257;43.514;1.498;2023-03-25T04:46:12;5.25;;;1.10;;
78877;SDS011;68257;43.514;1.498;2023-03-25T04:48:39;9.10;;;1.23;;
78877;SDS011;68257;43.514;1.498;2023-03-25T04:51:09;7.03;;;1.20;;
78877;SDS011;68257;43.514;1.498;2023-03-25T04:53:36;6.28;;;1.20;;
78877;SDS011;68257;43.514;1.498;2023-03-25T04:56:03;6.75;;;1.20;;
78877;SDS011;68257;43.514;1.498;2023-03-25T04:58:29;5.00;;;1.10;;
78877;SDS011;68257;43.514;1.498;2023-03-25T05:00:55;5.97;;;1.17;;
78877;SDS011;68257;43.514;1.498;2023-03-25T05:03:20;5.53;;;0.90;;
78877;SDS011;68257;43.514;1.498;2023-03-25T05:05:48;5.95;;;0.95;;
78877;SDS011;68257;43.514;1.498;2023-03-25T05:08:15;3.17;;;0.68;;
78877;SDS011;68257;43.514;1.498;2023-03-25T05:10:41;5.97;;;0.90;;
78877;SDS011;68257;43.514;1.498;2023-03-25T05:13:07;4.53;;;0.80;;
78877;SDS011;68257;43.514;1.498;2023-03-25T05:15:33;4.45;;;1.10;;
78877;SDS011;68257;43.514;1.498;2023-03-25T05:18:04;7.23;;;0.97;;
78877;SDS011;68257;43.514;1.498;2023-03-25T05:20:41;5.60;;;0.90;;
78877;SDS011;68257;43.514;1.498;2023-03-25T05:23:08;6.03;;;1.42;;
78877;SDS011;68257;43.514;1.498;2023-03-25T05:25:39;7.60;;;1.20;;
78877;SDS011;68257;43.514;1.498;2023-03-25T05:28:05;8.35;;;1.23;;
78877;SDS011;68257;43.514;1.498;2023-03-25T05:30:33;4.57;;;1.33;;
78877;SDS011;68257;43.514;1.498;2023-03-25T05:33:04;4.55;;;1.08;;
78877;SDS011;68257;43.514;1.498;2023-03-25T05:35:29;3.75;;;0.80;;
78877;SDS011;68257;43.514;1.498;2023-03-25T05:37:55;5.97;;;0.87;;
78877;SDS011;68257;43.514;1.498;2023-03-25T05:40:20;6.25;;;0.98;;
78877;SDS011;68257;43.514;1.498;2023-03-25T05:42:46;3.93;;;0.80;;
78877;SDS011;68257;43.514;1.498;2023-03-25T05:45:15;4.53;;;1.10;;
78877;SDS011;68257;43.514;1.498;2023-03-25T05:47:40;5.80;;;1.20;;
78877;SDS011;68257;43.514;1.498;2023-03-25T05:50:07;6.45;;;1.25;;
78877;SDS011;68257;43.514;1.498;2023-03-25T05:52:33;6.10;;;1.00;;
78877;SDS011;68257;43.514;1.498;2023-03-25T05:54:58;6.07;;;0.98;;
78877;SDS011;68257;43.514;1.498;2023-03-25T05:57:23;5.13;;;0.80;;
78877;SDS011;68257;43.514;1.498;2023-03-25T05:59:49;4.53;;;0.80;;
78877;SDS011;68257;43.514;1.498;2023-03-25T06:02:15;3.35;;;0.65;;
78877;SDS011;68257;43.514;1.498;2023-03-25T06:04:41;4.13;;;0.67;;
78877;SDS011;68257;43.514;1.498;2023-03-25T06:07:07;4.18;;;0.80;;
78877;SDS011;68257;43.514;1.498;2023-03-25T06:09:38;3.20;;;0.70;;
78877;SDS011;68257;43.514;1.498;2023-03-25T06:12:17;4.77;;;0.97;;
78877;SDS011;68257;43.514;1.498;2023-03-25T06:14:43;5.05;;;0.85;;
78877;SDS011;68257;43.514;1.498;2023-03-25T06:17:16;3.92;;;0.80;;
78877;SDS011;68257;43.514;1.498;2023-03-25T06:19:49;5.50;;;1.10;;
78877;SDS011;68257;43.514;1.498;2023-03-25T06:22:15;4.28;;;1.10;;
78877;SDS011;68257;43.514;1.498;2023-03-25T06:24:44;3.63;;;0.90;;
78877;SDS011;68257;43.514;1.498;2023-03-25T06:27:14;4.93;;;1.00;;
78877;SDS011;68257;43.514;1.498;2023-03-25T06:29:41;5.10;;;1.27;;
78877;SDS011;68257;43.514;1.498;2023-03-25T06:32:07;5.82;;;1.10;;
78877;SDS011;68257;43.514;1.498;2023-03-25T06:34:34;6.57;;;1.10;;
78877;SDS011;68257;43.514;1.498;2023-03-25T06:37:00;3.85;;;0.98;;
78877;SDS011;68257;43.514;1.498;2023-03-25T06:39:29;4.35;;;1.35;;
78877;SDS011;68257;43.514;1.498;2023-03-25T06:42:02;6.00;;;0.90;;
78877;SDS011;68257;43.514;1.498;2023-03-25T06:44:28;7.18;;;1.52;;
78877;SDS011;68257;43.514;1.498;2023-03-25T06:46:53;4.87;;;1.40;;
78877;SDS011;68257;43.514;1.498;2023-03-25T06:49:19;5.80;;;1.27;;
78877;SDS011;68257;43.514;1.498;2023-03-25T06:51:44;5.23;;;1.07;;
78877;SDS011;68257;43.514;1.498;2023-03-25T06:54:10;4.33;;;0.90;;
78877;SDS011;68257;43.514;1.498;2023-03-25T06:56:36;5.85;;;1.42;;
78877;SDS011;68257;43.514;1.498;2023-03-25T06:59:01;7.63;;;1.40;;
78877;SDS011;68257;43.514;1.498;2023-03-25T07:01:27;6.07;;;1.57;;
78877;SDS011;68257;43.514;1.498;2023-03-25T07:03:52;4.72;;;1.15;;
78877;SDS011;68257;43.514;1.498;2023-03-25T07:06:21;6.63;;;1.27;;
78877;SDS011;68257;43.514;1.498;2023-03-25T07:08:47;5.75;;;1.25;;
78877;SDS011;68257;43.514;1.498;2023-03-25T07:11:14;6.37;;;1.17;;
78877;SDS011;68257;43.514;1.498;2023-03-25T07:13:41;6.10;;;1.33;;
78877;SDS011;68257;43.514;1.498;2023-03-25T07:16:07;6.07;;;1.40;;
78877;SDS011;68257;43.514;1.498;2023-03-25T07:18:33;8.77;;;2.05;;
78877;SDS011;68257;43.514;1.498;2023-03-25T07:20:58;8.43;;;1.20;;
78877;SDS011;68257;43.514;1.498;2023-03-25T07:23:24;5.57;;;1.25;;
78877;SDS011;68257;43.514;1.498;2023-03-25T07:25:50;4.32;;;0.90;;
78877;SDS011;68257;43.514;1.498;2023-03-25T07:28:15;9.50;;;4.90;;
78877;SDS011;68257;43.514;1.498;2023-03-25T07:30:41;7.03;;;1.93;;
78877;SDS011;68257;43.514;1.498;2023-03-25T07:33:06;6.00;;;1.60;;
78877;SDS011;68257;43.514;1.498;2023-03-25T07:35:31;5.55;;;1.55;;
78877;SDS011;68257;43.514;1.498;2023-03-25T07:37:57;5.10;;;1.13;;
78877;SDS011;68257;43.514;1.498;2023-03-25T07:40:22;5.43;;;1.27;;
78877;SDS011;68257;43.514;1.498;2023-03-25T07:42:47;7.33;;;1.40;;
78877;SDS011;68257;43.514;1.498;2023-03-25T07:45:13;6.50;;;1.30;;
78877;SDS011;68257;43.514;1.498;2023-03-25T07:47:38;5.55;;;1.83;;
78877;SDS011;68257;43.514;1.498;2023-03-25T07:50:04;7.57;;;1.20;;
78877;SDS011;68257;43.514;1.498;2023-03-25T07:52:30;7.85;;;1.33;;
78877;SDS011;68257;43.514;1.498;2023-03-25T07:54:55;5.60;;;1.10;;
78877;SDS011;68257;43.514;1.498;2023-03-25T07:57:21;7.00;;;1.13;;
78877;SDS011;68257;43.514;1.498;2023-03-25T07:59:46;6.10;;;1.40;;
78877;SDS011;68257;43.514;1.498;2023-03-25T08:02:12;6.20;;;0.90;;
78877;SDS011;68257;43.514;1.498;2023-03-25T08:04:38;6.00;;;1.25;;
78877;SDS011;68257;43.514;1.498;2023-03-25T08:07:03;5.50;;;2.00;;
78877;SDS011;68257;43.514;1.498;2023-03-25T08:09:29;8.63;;;1.70;;
78877;SDS011;68257;43.514;1.498;2023-03-25T08:11:55;6.32;;;1.40;;
78877;SDS011;68257;43.514;1.498;2023-03-25T08:14:21;7.53;;;1.10;;
78877;SDS011;68257;43.514;1.498;2023-03-25T08:16:46;6.37;;;1.20;;
78877;SDS011;68257;43.514;1.498;2023-03-25T08:19:12;9.52;;;1.20;;
78877;SDS011;68257;43.514;1.498;2023-03-25T08:21:37;6.75;;;1.10;;
78877;SDS011;68257;43.514;1.498;2023-03-25T08:24:02;6.10;;;1.17;;
78877;SDS011;68257;43.514;1.498;2023-03-25T08:26:29;4.93;;;1.07;;
78877;SDS011;68257;43.514;1.498;2023-03-25T08:28:57;5.93;;;1.08;;
78877;SDS011;68257;43.514;1.498;2023-03-25T08:31:24;8.15;;;2.30;;
78877;SDS011;68257;43.514;1.498;2023-03-25T08:33:50;4.70;;;1.00;;
78877;SDS011;68257;43.514;1.498;2023-03-25T08:36:15;7.10;;;1.40;;
78877;SDS011;68257;43.514;1.498;2023-03-25T08:38:47;6.28;;;1.13;;
78877;SDS011;68257;43.514;1.498;2023-03-25T08:41:14;7.80;;;1.73;;
78877;SDS011;68257;43.514;1.498;2023-03-25T08:43:39;11.27;;;2.00;;
78877;SDS011;68257;43.514;1.498;2023-03-25T08:46:05;8.90;;;1.40;;
78877;SDS011;68257;43.514;1.498;2023-03-25T08:48:31;8.07;;;1.52;;
78877;SDS011;68257;43.514;1.498;2023-03-25T08:50:56;6.13;;;1.23;;
78877;SDS011;68257;43.514;1.498;2023-03-25T08:53:22;8.83;;;1.40;;
78877;SDS011;68257;43.514;1.498;2023-03-25T08:55:51;7.68;;;1.65;;
78877;SDS011;68257;43.514;1.498;2023-03-25T08:58:17;8.57;;;1.65;;
78877;SDS011;68257;43.514;1.498;2023-03-25T09:00:43;6.37;;;1.70;;
78877;SDS011;68257;43.514;1.498;2023-03-25T09:03:09;7.03;;;1.40;;
78877;SDS011;68257;43.514;1.498;2023-03-25T09:05:37;7.13;;;1.43;;
78877;SDS011;68257;43.514;1.498;2023-03-25T09:08:03;8.73;;;1.17;;
78877;SDS011;68257;43.514;1.498;2023-03-25T09:10:29;6.03;;;1.27;;
78877;SDS011;68257;43.514;1.498;2023-03-25T09:12:54;8.40;;;1.53;;
78877;SDS011;68257;43.514;1.498;2023-03-25T09:15:20;6.43;;;1.13;;
78877;SDS011;68257;43.514;1.498;2023-03-25T09:17:45;9.05;;;1.45;;
78877;SDS011;68257;43.514;1.498;2023-03-25T09:20:11;5.90;;;1.30;;
78877;SDS011;68257;43.514;1.498;2023-03-25T09:22:36;7.20;;;1.33;;
78877;SDS011;68257;43.514;1.498;2023-03-25T09:25:02;6.70;;;1.20;;
78877;SDS011;68257;43.514;1.498;2023-03-25T09:27:28;6.73;;;1.30;;
78877;SDS011;68257;43.514;1.498;2023-03-25T09:29:53;8.40;;;1.57;;
78877;SDS011;68257;43.514;1.498;2023-03-25T09:32:18;7.38;;;1.65;;
78877;SDS011;68257;43.514;1.498;2023-03-25T09:34:44;6.77;;;1.40;;
78877;SDS011;68257;43.514;1.498;2023-03-25T09:37:10;8.00;;;2.30;;
78877;SDS011;68257;43.514;1.498;2023-03-25T09:39:35;8.43;;;1.60;;
78877;SDS011;68257;43.514;1.498;2023-03-25T09:50:51;8.93;;;1.75;;
78877;SDS011;68257;43.514;1.498;2023-03-25T09:55:48;8.07;;;1.60;;
78877;SDS011;68257;43.514;1.498;2023-03-25T10:00:50;7.83;;;1.50;;
78877;SDS011;68257;43.514;1.498;2023-03-25T10:03:24;8.18;;;1.73;;
78877;SDS011;68257;43.514;1.498;2023-03-25T10:25:22;8.65;;;3.67;;
78877;SDS011;68257;43.514;1.498;2023-03-25T10:27:50;6.63;;;3.80;;
78877;SDS011;68257;43.514;1.498;2023-03-25T10:30:26;8.70;;;4.10;;
78877;SDS011;68257;43.514;1.498;2023-03-25T10:32:56;9.32;;;4.30;;
78877;SDS011;68257;43.514;1.498;2023-03-25T10:35:27;7.53;;;3.42;;
78877;SDS011;68257;43.514;1.498;2023-03-25T10:37:58;6.88;;;4.00;;
78877;SDS011;68257;43.514;1.498;2023-03-25T10:40:35;7.23;;;3.60;;
78877;SDS011;68257;43.514;1.498;2023-03-25T10:45:34;7.60;;;3.20;;
78877;SDS011;68257;43.514;1.498;2023-03-25T10:48:16;5.93;;;3.20;;
78877;SDS011;68257;43.514;1.498;2023-03-25T10:50:44;6.30;;;3.28;;
78877;SDS011;68257;43.514;1.498;2023-03-25T10:53:21;6.93;;;3.75;;
78877;SDS011;68257;43.514;1.498;2023-03-25T10:55:50;6.15;;;3.60;;
78877;SDS011;68257;43.514;1.498;2023-03-25T10:58:20;6.90;;;3.72;;
78877;SDS011;68257;43.514;1.498;2023-03-25T11:00:46;7.83;;;4.03;;
78877;SDS011;68257;43.514;1.498;2023-03-25T11:03:19;6.87;;;3.60;;
78877;SDS011;68257;43.514;1.498;2023-03-25T11:05:47;8.13;;;3.60;;
78877;SDS011;68257;43.514;1.498;2023-03-25T11:08:12;6.63;;;3.55;;
78877;SDS011;68257;43.514;1.498;2023-03-25T11:10:39;6.70;;;3.50;;
78877;SDS011;68257;43.514;1.498;2023-03-25T11:13:05;8.30;;;3.63;;
78877;SDS011;68257;43.514;1.498;2023-03-25T11:15:37;8.18;;;3.42;;
78877;SDS011;68257;43.514;1.498;2023-03-25T11:18:23;9.57;;;3.90;;
78877;SDS011;68257;43.514;1.498;2023-03-25T11:21:05;5.80;;;2.30;;
78877;SDS011;68257;43.514;1.498;2023-03-25T11:23:33;6.72;;;3.53;;
78877;SDS011;68257;43.514;1.498;2023-03-25T11:26:01;7.65;;;3.85;;
78877;SDS011;68257;43.514;1.498;2023-03-25T11:31:10;5.50;;;3.70;;
78877;SDS011;68257;43.514;1.498;2023-03-25T11:34:31;10.68;;;3.63;;
78877;SDS011;68257;43.514;1.498;2023-03-25T11:36:36;8.38;;;4.10;;
78877;SDS011;68257;43.514;1.498;2023-03-25T11:39:25;5.85;;;3.55;;
78877;SDS011;68257;43.514;1.498;2023-03-25T11:44:41;9.50;;;3.63;;
78877;SDS011;68257;43.514;1.498;2023-03-25T11:47:08;6.55;;;3.60;;
78877;SDS011;68257;43.514;1.498;2023-03-25T11:49:38;7.28;;;3.40;;
78877;SDS011;68257;43.514;1.498;2023-03-25T11:52:12;6.22;;;3.20;;
78877;SDS011;68257;43.514;1.498;2023-03-25T11:54:42;8.38;;;3.60;;
78877;SDS011;68257;43.514;1.498;2023-03-25T11:57:10;8.27;;;4.17;;
78877;SDS011;68257;43.514;1.498;2023-03-25T11:59:42;7.00;;;3.40;;
78877;SDS011;68257;43.514;1.498;2023-03-25T12:02:16;6.38;;;3.28;;
78877;SDS011;68257;43.514;1.498;2023-03-25T12:05:02;8.20;;;4.20;;
78877;SDS011;68257;43.514;1.498;2023-03-25T12:07:50;8.25;;;3.47;;
78877;SDS011;68257;43.514;1.498;2023-03-25T12:12:54;7.28;;;4.38;;
78877;SDS011;68257;43.514;1.498;2023-03-25T12:16:09;7.22;;;3.63;;
78877;SDS011;68257;43.514;1.498;2023-03-25T12:18:48;8.25;;;4.53;;
78877;SDS011;68257;43.514;1.498;2023-03-25T12:21:46;6.80;;;3.67;;
78877;SDS011;68257;43.514;1.498;2023-03-25T12:27:13;6.75;;;3.90;;
78877;SDS011;68257;43.514;1.498;2023-03-25T12:44:07;6.65;;;4.13;;
78877;SDS011;68257;43.514;1.498;2023-03-25T12:46:47;6.22;;;4.22;;
78877;SDS011;68257;43.514;1.498;2023-03-25T12:49:41;7.38;;;4.30;;
78877;SDS011;68257;43.514;1.498;2023-03-25T13:03:14;7.45;;;3.55;;
78877;SDS011;68257;43.514;1.498;2023-03-25T13:05:49;6.43;;;3.73;;
78877;SDS011;68257;43.514;1.498;2023-03-25T13:08:18;7.75;;;3.78;;
78877;SDS011;68257;43.514;1.498;2023-03-25T13:10:55;7.00;;;3.42;;
78877;SDS011;68257;43.514;1.498;2023-03-25T13:13:25;6.75;;;3.63;;
78877;SDS011;68257;43.514;1.498;2023-03-25T13:18:49;6.07;;;3.70;;
78877;SDS011;68257;43.514;1.498;2023-03-25T13:21:23;5.97;;;4.10;;
78877;SDS011;68257;43.514;1.498;2023-03-25T13:23:57;8.30;;;4.03;;
78877;SDS011;68257;43.514;1.498;2023-03-25T13:26:26;7.30;;;3.92;;
78877;SDS011;68257;43.514;1.498;2023-03-25T13:28:54;6.78;;;3.80;;
78877;SDS011;68257;43.514;1.498;2023-03-25T13:31:25;5.67;;;2.93;;
78877;SDS011;68257;43.514;1.498;2023-03-25T13:33:52;7.13;;;3.60;;
78877;SDS011;68257;43.514;1.498;2023-03-25T13:36:42;7.72;;;3.60;;
78877;SDS011;68257;43.514;1.498;2023-03-25T13:39:12;7.95;;;3.42;;
78877;SDS011;68257;43.514;1.498;2023-03-25T13:44:35;7.60;;;2.77;;
78877;SDS011;68257;43.514;1.498;2023-03-25T13:52:43;7.70;;;3.80;;
78877;SDS011;68257;43.514;1.498;2023-03-25T13:55:14;6.55;;;3.85;;
78877;SDS011;68257;43.514;1.498;2023-03-25T13:57:52;6.53;;;3.50;;
78877;SDS011;68257;43.514;1.498;2023-03-25T14:12:26;6.40;;;3.97;;
78877;SDS011;68257;43.514;1.498;2023-03-25T14:14:59;6.75;;;4.32;;
78877;SDS011;68257;43.514;1.498;2023-03-25T14:17:28;8.38;;;4.30;;
78877;SDS011;68257;43.514;1.498;2023-03-25T14:19:55;6.40;;;4.20;;
78877;SDS011;68257;43.514;1.498;2023-03-25T14:22:24;5.90;;;4.20;;
78877;SDS011;68257;43.514;1.498;2023-03-25T14:24:52;6.13;;;4.38;;
78877;SDS011;68257;43.514;1.498;2023-03-25T14:27:25;7.88;;;4.35;;
78877;SDS011;68257;43.514;1.498;2023-03-25T14:32:46;6.93;;;4.65;;
78877;SDS011;68257;43.514;1.498;2023-03-25T14:37:56;6.70;;;4.38;;
78877;SDS011;68257;43.514;1.498;2023-03-25T14:46:04;7.35;;;4.32;;
78877;SDS011;68257;43.514;1.498;2023-03-25T14:48:43;6.82;;;3.72;;
78877;SDS011;68257;43.514;1.498;2023-03-25T14:54:32;6.22;;;3.67;;
78877;SDS011;68257;43.514;1.498;2023-03-25T14:56:54;6.67;;;4.10;;
78877;SDS011;68257;43.514;1.498;2023-03-25T14:59:34;6.97;;;3.50;;
78877;SDS011;68257;43.514;1.498;2023-03-25T15:02:02;19.85;;;4.35;;
78877;SDS011;68257;43.514;1.498;2023-03-25T15:04:32;9.57;;;3.95;;
78877;SDS011;68257;43.514;1.498;2023-03-25T15:06:59;9.63;;;3.97;;
78877;SDS011;68257;43.514;1.498;2023-03-25T15:09:25;5.23;;;3.43;;
78877;SDS011;68257;43.514;1.498;2023-03-25T15:11:55;7.20;;;3.30;;
78877;SDS011;68257;43.514;1.498;2023-03-25T15:14:27;7.30;;;3.30;;
78877;SDS011;68257;43.514;1.498;2023-03-25T15:17:05;7.55;;;2.85;;
78877;SDS011;68257;43.514;1.498;2023-03-25T15:20:34;7.15;;;2.80;;
78877;SDS011;68257;43.514;1.498;2023-03-25T15:22:35;7.10;;;2.70;;
78877;SDS011;68257;43.514;1.498;2023-03-25T15:25:02;5.43;;;3.00;;
78877;SDS011;68257;43.514;1.498;2023-03-25T15:27:40;6.50;;;3.95;;
78877;SDS011;68257;43.514;1.498;2023-03-25T15:38:02;6.80;;;3.38;;
78877;SDS011;68257;43.514;1.498;2023-03-25T15:49:30;4.82;;;2.60;;
78877;SDS011;68257;43.514;1.498;2023-03-25T15:52:10;5.53;;;2.50;;
78877;SDS011;68257;43.514;1.498;2023-03-25T15:54:56;7.07;;;2.83;;
78877;SDS011;68257;43.514;1.498;2023-03-25T16:00:13;6.15;;;2.60;;
78877;SDS011;68257;43.514;1.498;2023-03-25T16:03:34;6.53;;;2.30;;
78877;SDS011;68257;43.514;1.498;2023-03-25T16:05:47;5.57;;;2.10;;
78877;SDS011;68257;43.514;1.498;2023-03-25T16:08:21;6.50;;;2.10;;
78877;SDS011;68257;43.514;1.498;2023-03-25T16:10:51;6.88;;;2.20;;
78877;SDS011;68257;43.514;1.498;2023-03-25T16:13:16;5.47;;;2.30;;
78877;SDS011;68257;43.514;1.498;2023-03-25T16:15:48;7.70;;;2.00;;
78877;SDS011;68257;43.514;1.498;2023-03-25T16:18:15;8.48;;;2.60;;
78877;SDS011;68257;43.514;1.498;2023-03-25T16:20:41;7.18;;;2.80;;
78877;SDS011;68257;43.514;1.498;2023-03-25T16:23:12;7.47;;;2.37;;
78877;SDS011;68257;43.514;1.498;2023-03-25T16:25:42;7.25;;;2.10;;
78877;SDS011;68257;43.514;1.498;2023-03-25T16:28:20;7.60;;;2.63;;
78877;SDS011;68257;43.514;1.498;2023-03-25T16:30:49;5.72;;;2.03;;
78877;SDS011;68257;43.514;1.498;2023-03-25T16:33:18;8.32;;;2.60;;
78877;SDS011;68257;43.514;1.498;2023-03-25T16:35:50;7.47;;;2.83;;
78877;SDS011;68257;43.514;1.498;2023-03-25T16:38:24;6.72;;;2.35;;
78877;SDS011;68257;43.514;1.498;2023-03-25T16:40:50;6.63;;;2.17;;
78877;SDS011;68257;43.514;1.498;2023-03-25T16:43:22;6.30;;;2.70;;
78877;SDS011;68257;43.514;1.498;2023-03-25T16:45:50;12.80;;;4.65;;
78877;SDS011;68257;43.514;1.498;2023-03-25T16:48:18;7.82;;;2.42;;
78877;SDS011;68257;43.514;1.498;2023-03-25T16:50:48;10.38;;;2.13;;
78877;SDS011;68257;43.514;1.498;2023-03-25T16:53:17;7.73;;;2.10;;
78877;SDS011;68257;43.514;1.498;2023-03-25T16:58:14;7.57;;;2.40;;
78877;SDS011;68257;43.514;1.498;2023-03-25T17:00:41;8.03;;;2.20;;
78877;SDS011;68257;43.514;1.498;2023-03-25T17:03:17;7.43;;;1.90;;
78877;SDS011;68257;43.514;1.498;2023-03-25T17:06:02;8.50;;;2.17;;
78877;SDS011;68257;43.514;1.498;2023-03-25T17:08:30;10.13;;;3.10;;
78877;SDS011;68257;43.514;1.498;2023-03-25T17:10:56;8.88;;;2.60;;
78877;SDS011;68257;43.514;1.498;2023-03-25T17:13:26;7.97;;;2.33;;
78877;SDS011;68257;43.514;1.498;2023-03-25T17:15:55;7.90;;;1.75;;
78877;SDS011;68257;43.514;1.498;2023-03-25T17:18:22;5.93;;;1.93;;
78877;SDS011;68257;43.514;1.498;2023-03-25T17:20:51;9.93;;;3.40;;
78877;SDS011;68257;43.514;1.498;2023-03-25T17:23:25;10.10;;;3.55;;
78877;SDS011;68257;43.514;1.498;2023-03-25T17:26:03;8.63;;;3.00;;
78877;SDS011;68257;43.514;1.498;2023-03-25T17:28:37;9.37;;;3.00;;
78877;SDS011;68257;43.514;1.498;2023-03-25T17:33:49;8.10;;;2.22;;
78877;SDS011;68257;43.514;1.498;2023-03-25T17:36:16;7.90;;;1.75;;
78877;SDS011;68257;43.514;1.498;2023-03-25T17:38:43;6.38;;;1.73;;
78877;SDS011;68257;43.514;1.498;2023-03-25T17:41:11;7.07;;;2.27;;
78877;SDS011;68257;43.514;1.498;2023-03-25T17:43:40;8.18;;;2.00;;
78877;SDS011;68257;43.514;1.498;2023-03-25T17:46:07;8.07;;;1.80;;
78877;SDS011;68257;43.514;1.498;2023-03-25T17:48:33;6.45;;;1.92;;
78877;SDS011;68257;43.514;1.498;2023-03-25T17:50:58;7.47;;;2.27;;
78877;SDS011;68257;43.514;1.498;2023-03-25T17:53:25;8.65;;;2.47;;
78877;SDS011;68257;43.514;1.498;2023-03-25T17:55:50;7.72;;;2.40;;
78877;SDS011;68257;43.514;1.498;2023-03-25T17:58:17;10.87;;;2.70;;
78877;SDS011;68257;43.514;1.498;2023-03-25T18:00:43;8.48;;;2.42;;
78877;SDS011;68257;43.514;1.498;2023-03-25T18:03:17;6.53;;;1.90;;
78877;SDS011;68257;43.514;1.498;2023-03-25T18:05:46;7.03;;;1.70;;